Huvudsida
METAR-TAF:

METAR-TAF

Flygplatser :

Pápa, Ungern

latitud: 47-12N, longitud: 017-30E, höjd: 145 m

Aktuellt väderrapport

Denna rapport gjordes för 39 minuter sedan, klockan 13:15 UTC
Vind 4 kt från väst
Temperatur 23°C
Fuktighet 17%
Tryck 1021 hPa
Sikt 10 km eller mer
Inga moln under 1 500 m eller inga cumulonimbus

METAR: LHPA 091315Z 27004KT CAVOK 23/M03 Q1021 NOSIG RMK BLU

Tid: 15:54 (13:54 UTC)

Väderprognos

Denna rapport gjordes för 2 timmar och 39 minuter sedan, klockan 11:15 UTC
Prognos gäller från 09 kl. 12 UTC till 10 kl. 12 UTC
Vind 6 kt från väst/sydväst
Sikt 10 km eller mer
Inga moln under 1 500 m eller inga cumulonimbus
Temporärt
från 09 kl. 15 UTC till 10 kl. 04 UTC
Vind 3 kt varierande vindriktning
Blir
från 10 kl. 03 UTC till 10 kl. 06 UTC
Vind 6 kt från nord/nordväst

TAF: LHPA 091115Z 0912/1012 24006KT CAVOK TEMPO 0915/1004 VRB03KT BECMG 1003/1006 34006KT

Aktuella väderrapporter och prognoser från 4000 flygplatser (METAR- och TAF-rapporter).

De tillgängliga stationerna syns som gula och röda prickar på kartan.

För musen över prickarna för att se namnen på stationerna.

Klicka sedan för att få väderrapporter och prognoser.

För att ändra kartan: Klicka på de gröna knapparna med ett svart kors på för att zooma in; den gröna knappen med ett streck på för att zooma ut; eller på de gröna pilarna för angränsande kartor.


METAR-TAF: